createdAt,value
2024-03-12T00:00:17.954Z,98163.53
2024-03-12T00:02:48.984Z,98162.69
2024-03-12T00:05:19.741Z,98165.94
2024-03-12T00:07:48.144Z,98161.44
2024-03-12T00:10:16.887Z,98160.59
2024-03-12T00:12:55.408Z,98162.69
2024-03-12T00:15:24.509Z,98169.69
2024-03-12T00:17:54.854Z,98170.72
2024-03-12T00:20:31.444Z,98171.78
2024-03-12T00:23:02.936Z,98170.97
2024-03-12T00:25:31.893Z,98174.25
2024-03-12T00:28:03.128Z,98176.34
2024-03-12T00:30:32.162Z,98167.72
2024-03-12T00:32:59.770Z,98175.75
2024-03-12T00:35:30.151Z,98170.97
2024-03-12T00:38:00.282Z,98172.00
2024-03-12T00:41:14.966Z,98181.72
2024-03-12T00:45:04.711Z,98174.69
2024-03-12T00:48:43.472Z,98182.19
2024-03-12T00:51:12.468Z,98177.03
2024-03-12T00:53:40.285Z,98186.72
2024-03-12T00:56:15.471Z,98179.72
2024-03-12T00:59:04.007Z,98183.22
2024-03-12T01:01:46.045Z,98186.38
2024-03-12T01:04:12.955Z,98189.66
2024-03-12T01:06:46.796Z,98186.38
2024-03-12T01:09:14.656Z,98184.97
2024-03-12T01:12:01.101Z,98188.47
2024-03-12T01:14:31.699Z,98188.47
2024-03-12T01:16:58.500Z,98197.56
2024-03-12T01:19:25.293Z,98192.78
2024-03-12T01:21:53.191Z,98191.38
2024-03-12T01:24:22.560Z,98200.69
2024-03-12T01:26:49.750Z,98199.66
2024-03-12T01:29:18.990Z,98199.66
2024-03-12T01:31:45.775Z,98198.03
2024-03-12T01:34:14.893Z,98195.59
2024-03-12T01:36:44.077Z,98205.50
2024-03-12T01:39:11.138Z,98207.94
2024-03-12T01:41:43.047Z,98208.75
2024-03-12T01:44:10.137Z,98202.00
2024-03-12T01:46:38.014Z,98199.31
2024-03-12T01:49:12.157Z,98203.88
2024-03-12T01:51:39.250Z,98203.88
2024-03-12T01:54:10.200Z,98207.59
2024-03-12T01:56:37.424Z,98215.38
2024-03-12T01:59:04.552Z,98214.59
2024-03-12T02:01:31.656Z,98215.66
2024-03-12T02:03:58.746Z,98215.88
2024-03-12T02:06:26.364Z,98224.50
2024-03-12T02:08:54.408Z,98229.03
2024-03-12T02:11:21.370Z,98227.41
2024-03-12T02:13:52.470Z,98225.31
2024-03-12T02:16:19.767Z,98221.22
2024-03-12T02:18:46.585Z,98230.66
2024-03-12T02:21:14.432Z,98225.56
2024-03-12T02:23:43.139Z,98223.91
2024-03-12T02:26:11.644Z,98231.94
2024-03-12T02:28:38.830Z,98227.41
2024-03-12T02:31:07.413Z,98232.53
2024-03-12T02:33:34.711Z,98237.91
2024-03-12T02:36:01.776Z,98239.78
2024-03-12T02:38:29.876Z,98236.03
2024-03-12T02:40:56.764Z,98239.78
2024-03-12T02:43:23.529Z,98234.41
2024-03-12T02:45:51.090Z,98251.53
2024-03-12T02:48:18.048Z,98245.34
2024-03-12T02:50:45.020Z,98248.84
2024-03-12T02:53:12.048Z,98255.03
2024-03-12T02:55:39.306Z,98248.84
2024-03-12T02:58:06.368Z,98245.94
2024-03-12T03:00:33.421Z,98243.47
2024-03-12T03:03:01.078Z,98249.69
2024-03-12T03:05:29.889Z,98245.13
2024-03-12T03:07:57.555Z,98248.84
2024-03-12T03:10:24.534Z,98250.72
2024-03-12T03:12:52.980Z,98249.69
2024-03-12T03:15:21.986Z,98255.03
2024-03-12T03:17:50.175Z,98251.53
2024-03-12T03:20:17.289Z,98255.84
2024-03-12T03:22:44.779Z,98252.59
2024-03-12T03:25:14.659Z,98256.06
2024-03-12T03:27:41.987Z,98255.25
2024-03-12T03:30:11.467Z,98250.72
2024-03-12T03:32:38.381Z,98255.25
2024-03-12T03:35:05.734Z,98260.41
2024-03-12T03:37:36.350Z,98258.75
2024-03-12T03:40:12.259Z,98259.56
2024-03-12T03:42:40.626Z,98261.44
2024-03-12T03:45:07.773Z,98268.44
2024-03-12T03:47:37.789Z,98274.03
2024-03-12T03:50:09.134Z,98266.56
2024-03-12T03:52:39.684Z,98281.00
2024-03-12T03:55:08.101Z,98286.38
2024-03-12T03:57:35.262Z,98284.75
2024-03-12T04:00:05.335Z,98286.38
2024-03-12T04:02:34.797Z,98296.28
2024-03-12T04:05:04.241Z,98297.09
2024-03-12T04:07:31.113Z,98294.53
2024-03-12T04:09:57.962Z,98298.50
2024-03-12T04:12:26.343Z,98296.88
2024-03-12T04:14:53.199Z,98296.88
2024-03-12T04:17:20.784Z,98296.88
2024-03-12T04:19:49.274Z,98302.25
2024-03-12T04:22:17.665Z,98303.06
2024-03-12T04:24:48.124Z,98304.69
2024-03-12T04:27:16.408Z,98309.81
2024-03-12T04:29:43.958Z,98312.50
2024-03-12T04:32:13.653Z,98310.03
2024-03-12T04:34:45.638Z,98319.94
2024-03-12T04:37:14.140Z,98319.94
2024-03-12T04:39:41.250Z,98314.59
2024-03-12T04:42:08.200Z,98312.16
2024-03-12T04:44:35.434Z,98320.75
2024-03-12T04:47:02.186Z,98327.19
2024-03-12T04:49:29.219Z,98336.03
2024-03-12T04:51:56.444Z,98346.75
2024-03-12T04:54:23.316Z,98346.75
2024-03-12T04:56:53.250Z,98351.09
2024-03-12T04:59:20.244Z,98353.78
2024-03-12T05:01:49.067Z,98358.28
2024-03-12T05:04:22.721Z,98369.03
2024-03-12T05:06:50.859Z,98371.38
2024-03-12T05:09:19.179Z,98378.47
2024-03-12T05:11:47.065Z,98376.06
2024-03-12T05:14:13.965Z,98383.66
2024-03-12T05:16:41.027Z,98383.19
2024-03-12T05:19:12.696Z,98393.19
2024-03-12T05:21:39.927Z,98389.56
2024-03-12T05:24:07.264Z,98391.31
2024-03-12T05:26:37.714Z,98404.13
2024-03-12T05:29:04.595Z,98403.53
2024-03-12T05:31:33.660Z,98412.59
2024-03-12T05:34:04.073Z,98410.97
2024-03-12T05:36:35.491Z,98408.78
2024-03-12T05:39:05.799Z,98406.81
2024-03-12T05:41:50.588Z,98413.06
2024-03-12T05:44:36.169Z,98412.47
2024-03-12T05:47:23.278Z,98414.34
2024-03-12T05:49:52.728Z,98417.03
2024-03-12T05:52:20.449Z,98410.03
2024-03-12T05:54:47.458Z,98415.41
2024-03-12T05:57:14.306Z,98418.91
2024-03-12T05:59:41.804Z,98424.25
2024-03-12T06:02:09.961Z,98431.66
2024-03-12T06:04:40.816Z,98427.56
2024-03-12T06:07:08.235Z,98432.06
2024-03-12T06:09:35.321Z,98428.91
2024-03-12T06:12:56.848Z,98438.16
2024-03-12T06:15:30.906Z,98432.09
2024-03-12T06:17:58.619Z,98436.81
2024-03-12T06:20:39.432Z,98437.63
2024-03-12T06:23:14.548Z,98439.81
2024-03-12T06:25:42.101Z,98448.19
2024-03-12T06:28:09.499Z,98449.06
2024-03-12T06:30:36.829Z,98448.06
2024-03-12T06:33:04.031Z,98448.03
2024-03-12T06:35:33.343Z,98445.88
2024-03-12T06:38:00.262Z,98445.88
2024-03-12T06:40:27.061Z,98457.28
2024-03-12T06:42:53.963Z,98457.28
2024-03-12T06:45:21.271Z,98466.38
2024-03-12T06:47:50.281Z,98467.19
2024-03-12T06:50:17.241Z,98468.22
2024-03-12T06:52:48.521Z,98466.72
2024-03-12T06:55:19.216Z,98460.09
2024-03-12T06:57:53.894Z,98469.41
2024-03-12T07:00:41.317Z,98468.00
2024-03-12T07:03:08.923Z,98471.75
2024-03-12T07:05:37.983Z,98475.47
2024-03-12T07:08:08.951Z,98477.13
2024-03-12T07:10:38.628Z,98482.47
2024-03-12T07:13:09.007Z,98481.63
2024-03-12T07:15:40.320Z,98482.47
2024-03-12T07:18:08.933Z,98485.97
2024-03-12T07:20:36.161Z,98486.78
2024-03-12T07:23:03.738Z,98485.72
2024-03-12T07:25:33.510Z,98489.47
2024-03-12T07:28:08.019Z,98481.41
2024-03-12T07:30:36.888Z,98484.09
2024-03-12T07:33:04.919Z,98480.34
2024-03-12T07:35:35.762Z,98488.41
2024-03-12T07:38:04.653Z,98488.19
2024-03-12T07:40:32.310Z,98487.38
2024-03-12T07:43:01.790Z,98496.63
2024-03-12T07:45:29.172Z,98486.25
2024-03-12T07:47:57.518Z,98481.53
2024-03-12T07:50:29.800Z,98489.13
2024-03-12T07:52:59.897Z,98495.31
2024-03-12T07:55:26.859Z,98504.66
2024-03-12T07:57:53.943Z,98501.50
2024-03-12T08:00:21.165Z,98509.91
2024-03-12T08:02:48.136Z,98503.09
2024-03-12T08:05:15.173Z,98513.44
2024-03-12T08:07:42.535Z,98515.28
2024-03-12T08:10:11.260Z,98516.53
2024-03-12T08:12:41.330Z,98518.13
2024-03-12T08:15:10.272Z,98525.72
2024-03-12T08:17:39.218Z,98524.44
2024-03-12T08:20:07.367Z,98524.69
2024-03-12T08:22:37.185Z,98526.97
2024-03-12T08:25:05.034Z,98524.03
2024-03-12T08:27:32.248Z,98525.91
2024-03-12T08:29:59.149Z,98531.72
2024-03-12T08:32:26.762Z,98532.81
2024-03-12T08:34:53.989Z,98532.19
2024-03-12T08:37:23.770Z,98535.03
2024-03-12T08:39:51.455Z,98539.19
2024-03-12T08:42:18.447Z,98531.66
2024-03-12T08:44:45.580Z,98539.63
2024-03-12T08:47:13.299Z,98532.91
2024-03-12T08:49:40.467Z,98533.72
2024-03-12T08:52:07.674Z,98538.81
2024-03-12T08:54:35.324Z,98539.25
2024-03-12T08:57:05.755Z,98540.44
2024-03-12T08:59:33.007Z,98550.59
2024-03-12T09:02:01.584Z,98552.78
2024-03-12T09:04:31.708Z,98559.44
2024-03-12T09:06:59.535Z,98557.22
2024-03-12T09:09:28.030Z,98555.91
2024-03-12T09:11:57.174Z,98554.63
2024-03-12T09:14:25.041Z,98563.19
2024-03-12T09:16:53.070Z,98567.22
2024-03-12T09:19:20.281Z,98559.00
2024-03-12T09:21:47.137Z,98559.00
2024-03-12T09:24:16.754Z,98563.47
2024-03-12T09:26:45.483Z,98564.88
2024-03-12T09:29:14.636Z,98566.19
2024-03-12T09:31:43.203Z,98563.69
2024-03-12T09:34:11.879Z,98567.47
2024-03-12T09:36:39.291Z,98566.50
2024-03-12T09:39:12.229Z,98561.41
2024-03-12T09:42:02.206Z,98571.72
2024-03-12T09:44:29.344Z,98576.47
2024-03-12T09:46:56.395Z,98568.47
2024-03-12T09:49:23.764Z,98577.16
2024-03-12T09:51:52.267Z,98577.72
2024-03-12T09:54:19.905Z,98571.88
2024-03-12T09:56:47.170Z,98580.72
2024-03-12T09:59:15.039Z,98578.28
2024-03-12T10:01:43.960Z,98577.78
2024-03-12T10:04:10.872Z,98589.94
2024-03-12T10:06:37.880Z,98587.72
2024-03-12T10:09:09.698Z,98602.22
2024-03-12T10:11:36.641Z,98602.25
2024-03-12T10:14:07.471Z,98593.13
2024-03-12T10:16:35.794Z,98592.78
2024-03-12T10:19:16.299Z,98593.22
2024-03-12T10:21:46.258Z,98602.25
2024-03-12T10:24:23.281Z,98602.31
2024-03-12T10:26:51.566Z,98598.50
2024-03-12T10:29:22.264Z,98605.31
2024-03-12T10:31:49.806Z,98606.84
2024-03-12T10:34:26.942Z,98599.69
2024-03-12T10:36:53.963Z,98598.44
2024-03-12T10:39:32.803Z,98606.19
2024-03-12T10:42:01.720Z,98607.59
2024-03-12T10:44:30.234Z,98606.41
2024-03-12T10:47:00.369Z,98602.53
2024-03-12T10:49:29.914Z,98603.41
2024-03-12T10:51:59.160Z,98602.09
2024-03-12T10:54:31.930Z,98616.78
2024-03-12T10:57:04.547Z,98614.28
2024-03-12T10:59:33.410Z,98615.59
2024-03-12T11:02:00.685Z,98619.56
2024-03-12T11:04:30.038Z,98621.03
2024-03-12T11:07:01.977Z,98616.28
2024-03-12T11:09:30.637Z,98627.41
2024-03-12T11:11:58.207Z,98621.19
2024-03-12T11:14:25.207Z,98618.28
2024-03-12T11:16:55.841Z,98620.16
2024-03-12T11:19:27.828Z,98627.94
2024-03-12T11:22:02.545Z,98627.31
2024-03-12T11:24:32.032Z,98622.94
2024-03-12T11:27:05.345Z,98631.81
2024-03-12T11:30:09.910Z,98635.34
2024-03-12T11:32:41.711Z,98626.63
2024-03-12T11:35:18.254Z,98628.59
2024-03-12T11:37:49.035Z,98636.69
2024-03-12T11:40:39.560Z,98629.41
2024-03-12T11:43:39.660Z,98630.84
2024-03-12T11:46:42.643Z,98631.88
2024-03-12T11:49:35.854Z,98631.88
2024-03-12T11:52:02.796Z,98623.38
2024-03-12T11:54:44.256Z,98631.03
2024-03-12T11:57:27.958Z,98634.41
2024-03-12T11:59:58.459Z,98633.16
2024-03-12T12:02:28.301Z,98641.84
2024-03-12T12:04:57.324Z,98630.22
2024-03-12T12:07:29.452Z,98631.44
2024-03-12T12:09:56.660Z,98635.44
2024-03-12T12:12:23.794Z,98635.59
2024-03-12T12:14:51.110Z,98633.91
2024-03-12T12:17:23.376Z,98633.38
2024-03-12T12:20:16.219Z,98639.06
2024-03-12T12:22:51.302Z,98629.25
2024-03-12T12:25:22.286Z,98637.66
2024-03-12T12:27:49.405Z,98644.63
2024-03-12T12:30:18.587Z,98634.41
2024-03-12T12:32:46.452Z,98635.38
2024-03-12T12:35:15.468Z,98644.53
2024-03-12T12:37:48.149Z,98635.44
2024-03-12T12:40:19.026Z,98648.38
2024-03-12T12:42:47.248Z,98642.47
2024-03-12T12:45:15.478Z,98640.50
2024-03-12T12:47:50.519Z,98644.53
2024-03-12T12:50:31.387Z,98646.16
2024-03-12T12:53:03.512Z,98638.13
2024-03-12T12:55:33.346Z,98639.91
2024-03-12T12:58:06.024Z,98641.41
2024-03-12T13:00:37.588Z,98643.03
2024-03-12T13:03:13.749Z,98641.75
2024-03-12T13:05:42.683Z,98641.41
2024-03-12T13:08:28.305Z,98644.91
2024-03-12T13:11:01.469Z,98636.84
2024-03-12T13:13:29.240Z,98635.84
2024-03-12T13:15:56.467Z,98643.03
2024-03-12T13:18:23.300Z,98640.06
2024-03-12T13:20:50.934Z,98647.50
2024-03-12T13:23:20.766Z,98649.84
2024-03-12T13:25:47.627Z,98656.75
2024-03-12T13:28:16.531Z,98647.38
2024-03-12T13:30:44.362Z,98641.03
2024-03-12T13:33:11.767Z,98644.06
2024-03-12T13:35:41.045Z,98641.31
2024-03-12T13:38:07.857Z,98636.16
2024-03-12T13:40:35.133Z,98638.50
2024-03-12T13:43:02.063Z,98638.63
2024-03-12T13:45:30.060Z,98642.38
2024-03-12T13:47:57.307Z,98632.34
2024-03-12T13:50:24.650Z,98636.66
2024-03-12T13:52:52.839Z,98638.28
2024-03-12T13:55:20.277Z,98626.06
2024-03-12T13:57:47.711Z,98634.78
2024-03-12T14:00:14.992Z,98625.47
2024-03-12T14:02:42.370Z,98629.00
2024-03-12T14:05:10.760Z,98627.28
2024-03-12T14:07:42.505Z,98632.06
2024-03-12T14:10:10.338Z,98637.72
2024-03-12T14:12:38.535Z,98632.84
2024-03-12T14:15:06.834Z,98631.56
2024-03-12T14:17:33.797Z,98634.84
2024-03-12T14:20:00.814Z,98638.28
2024-03-12T14:22:27.807Z,98640.25
2024-03-12T14:24:54.655Z,98650.19
2024-03-12T14:27:21.477Z,98649.22
2024-03-12T14:29:49.317Z,98653.72
2024-03-12T14:32:17.398Z,98651.69
2024-03-12T14:34:45.381Z,98660.69
2024-03-12T14:37:12.603Z,98667.50
2024-03-12T14:39:39.595Z,98675.94
2024-03-12T14:42:08.551Z,98671.94
2024-03-12T14:44:36.103Z,98677.31
2024-03-12T14:47:03.259Z,98672.31
2024-03-12T14:49:37.823Z,98672.75
2024-03-12T14:52:06.126Z,98666.28
2024-03-12T14:54:33.512Z,98667.78
2024-03-12T14:57:00.764Z,98672.75
2024-03-12T14:59:27.665Z,98668.31
2024-03-12T15:01:54.516Z,98668.19
2024-03-12T15:04:22.383Z,98659.72
2024-03-12T15:06:49.396Z,98669.72
2024-03-12T15:09:16.554Z,98672.63
2024-03-12T15:11:44.288Z,98676.59
2024-03-12T15:14:11.697Z,98676.19
2024-03-12T15:16:40.224Z,98675.53
2024-03-12T15:19:07.173Z,98675.94
2024-03-12T15:21:34.243Z,98680.16
2024-03-12T15:24:02.784Z,98674.63
2024-03-12T15:26:31.433Z,98681.53
2024-03-12T15:28:58.335Z,98681.53
2024-03-12T15:31:25.792Z,98690.72
2024-03-12T15:33:53.506Z,98682.81
2024-03-12T15:36:22.024Z,98681.97
2024-03-12T15:38:52.948Z,98679.22
2024-03-12T15:41:25.876Z,98689.22
2024-03-12T15:43:55.291Z,98687.41
2024-03-12T15:46:24.430Z,98682.59
2024-03-12T15:48:54.341Z,98683.88
2024-03-12T15:51:21.721Z,98671.19
2024-03-12T15:53:58.631Z,98677.59
2024-03-12T15:56:29.305Z,98674.31
2024-03-12T15:58:56.957Z,98680.16
2024-03-12T16:01:49.020Z,98674.31
2024-03-12T16:04:16.110Z,98672.25
2024-03-12T16:06:43.803Z,98670.63
2024-03-12T16:09:15.614Z,98668.28
2024-03-12T16:11:44.666Z,98669.03
2024-03-12T16:14:17.365Z,98676.00
2024-03-12T16:16:45.034Z,98679.09
2024-03-12T16:19:14.804Z,98673.06
2024-03-12T16:21:41.855Z,98673.13
2024-03-12T16:24:08.876Z,98671.22
2024-03-12T16:26:36.552Z,98668.94
2024-03-12T16:29:08.318Z,98665.41
2024-03-12T16:31:37.397Z,98673.72
2024-03-12T16:34:14.195Z,98684.03
2024-03-12T16:36:42.570Z,98676.41
2024-03-12T16:39:10.454Z,98673.19
2024-03-12T16:41:37.920Z,98673.94
2024-03-12T16:44:10.965Z,98677.69
2024-03-12T16:46:38.612Z,98680.25
2024-03-12T16:49:05.528Z,98683.56
2024-03-12T16:51:35.868Z,98682.06
2024-03-12T16:54:03.638Z,98682.00
2024-03-12T16:56:34.130Z,98686.25
2024-03-12T16:59:23.652Z,98689.59
2024-03-12T17:01:51.060Z,98684.66
2024-03-12T17:04:18.252Z,98685.34
2024-03-12T17:06:46.629Z,98690.88
2024-03-12T17:09:14.058Z,98689.81
2024-03-12T17:11:41.494Z,98691.63
2024-03-12T17:14:14.925Z,98694.88
2024-03-12T17:16:49.374Z,98691.63
2024-03-12T17:19:19.561Z,98699.22
2024-03-12T17:21:46.986Z,98696.66
2024-03-12T17:24:16.368Z,98701.50
2024-03-12T17:26:43.814Z,98699.66
2024-03-12T17:29:14.321Z,98699.00
2024-03-12T17:31:41.572Z,98699.00
2024-03-12T17:34:11.779Z,98698.19
2024-03-12T17:36:39.609Z,98696.09
2024-03-12T17:39:12.370Z,98708.31
2024-03-12T17:41:44.015Z,98702.94
2024-03-12T17:44:11.605Z,98700.47
2024-03-12T17:46:44.597Z,98712.47
2024-03-12T17:49:21.279Z,98706.91
2024-03-12T17:51:49.612Z,98715.75
2024-03-12T17:54:17.202Z,98718.34
2024-03-12T17:56:51.660Z,98722.75
2024-03-12T17:59:20.594Z,98722.28
2024-03-12T18:01:48.480Z,98730.53
2024-03-12T18:04:16.122Z,98730.59
2024-03-12T18:06:45.709Z,98726.72
2024-03-12T18:09:16.042Z,98726.72
2024-03-12T18:11:43.837Z,98721.56
2024-03-12T18:14:13.577Z,98720.97
2024-03-12T18:16:40.499Z,98712.72
2024-03-12T18:19:07.727Z,98711.06
2024-03-12T18:21:35.493Z,98720.16
2024-03-12T18:24:05.754Z,98716.44
2024-03-12T18:26:34.557Z,98717.47
2024-03-12T18:29:04.484Z,98705.50
2024-03-12T18:31:31.535Z,98717.47
2024-03-12T18:33:59.291Z,98713.53
2024-03-12T18:36:26.068Z,98709.25
2024-03-12T18:38:53.344Z,98719.00
2024-03-12T18:41:22.474Z,98712.06
2024-03-12T18:43:49.510Z,98707.97
2024-03-12T18:46:16.685Z,98714.16
2024-03-12T18:48:44.388Z,98707.56
2024-03-12T18:51:11.695Z,98705.13
2024-03-12T18:53:41.310Z,98708.38
2024-03-12T18:56:08.624Z,98706.09
2024-03-12T18:58:36.090Z,98714.09
2024-03-12T19:01:03.675Z,98713.34
2024-03-12T19:03:51.039Z,98724.06
2024-03-12T19:06:22.024Z,98719.09
2024-03-12T19:08:57.102Z,98718.09
2024-03-12T19:11:24.227Z,98720.75
2024-03-12T19:13:52.852Z,98722.03
2024-03-12T19:16:23.305Z,98722.84
2024-03-12T19:18:55.242Z,98722.84
2024-03-12T19:21:27.309Z,98728.19
2024-03-12T19:23:56.487Z,98730.06
2024-03-12T19:26:24.086Z,98728.19
2024-03-12T19:28:57.003Z,98730.88
2024-03-12T19:31:25.476Z,98726.56
2024-03-12T19:33:53.074Z,98722.84
2024-03-12T19:36:23.338Z,98732.31
2024-03-12T19:38:52.717Z,98733.97
2024-03-12T19:41:20.106Z,98737.50
2024-03-12T19:43:47.477Z,98744.28
2024-03-12T19:46:16.574Z,98739.97
2024-03-12T19:48:44.503Z,98739.13
2024-03-12T19:51:13.154Z,98739.97
2024-03-12T19:53:41.140Z,98734.63
2024-03-12T19:56:13.218Z,98738.31
2024-03-12T19:58:40.798Z,98736.25
2024-03-12T20:01:07.821Z,98734.63
2024-03-12T20:03:35.008Z,98739.38
2024-03-12T20:06:05.200Z,98739.38
2024-03-12T20:08:33.583Z,98739.97
2024-03-12T20:11:01.553Z,98733.41
2024-03-12T20:13:28.700Z,98727.84
2024-03-12T20:15:56.014Z,98735.03
2024-03-12T20:18:28.250Z,98729.91
2024-03-12T20:21:01.937Z,98726.41
2024-03-12T20:23:31.558Z,98730.72
2024-03-12T20:25:59.181Z,98737.72
2024-03-12T20:28:29.002Z,98738.75
2024-03-12T20:30:59.143Z,98737.13
2024-03-12T20:33:28.362Z,98749.28
2024-03-12T20:35:58.915Z,98739.81
2024-03-12T20:38:26.025Z,98739.81
2024-03-12T20:40:53.114Z,98743.53
2024-03-12T20:43:22.951Z,98737.13
2024-03-12T20:45:52.694Z,98735.28
2024-03-12T20:48:22.671Z,98717.53
2024-03-12T20:50:49.526Z,98726.41
2024-03-12T20:53:16.701Z,98723.13
2024-03-12T20:55:44.243Z,98722.06
2024-03-12T20:58:11.050Z,98723.75
2024-03-12T21:00:39.190Z,98727.44
2024-03-12T21:03:10.716Z,98717.53
2024-03-12T21:05:39.841Z,98718.38
2024-03-12T21:08:08.436Z,98709.72
2024-03-12T21:10:35.968Z,98707.06
2024-03-12T21:13:03.186Z,98707.25
2024-03-12T21:15:30.885Z,98702.72
2024-03-12T21:18:01.782Z,98706.00
2024-03-12T21:20:34.483Z,98706.00
2024-03-12T21:23:05.277Z,98692.81
2024-03-12T21:25:34.369Z,98690.97
2024-03-12T21:28:01.235Z,98699.00
2024-03-12T21:30:29.158Z,98689.91
2024-03-12T21:32:57.102Z,98687.25
2024-03-12T21:35:25.395Z,98686.44
2024-03-12T21:37:52.919Z,98688.50
2024-03-12T21:40:24.256Z,98687.44
2024-03-12T21:42:51.650Z,98687.25
2024-03-12T21:45:19.664Z,98679.19
2024-03-12T21:47:49.402Z,98673.84
2024-03-12T21:50:16.956Z,98676.53
2024-03-12T21:52:44.206Z,98672.22
2024-03-12T21:55:12.422Z,98666.00
2024-03-12T21:57:41.209Z,98671.16
2024-03-12T22:00:20.572Z,98672.81
2024-03-12T22:02:48.696Z,98676.53
2024-03-12T22:05:17.480Z,98666.00
2024-03-12T22:07:45.212Z,98669.75
2024-03-12T22:10:13.898Z,98668.47
2024-03-12T22:12:42.191Z,98663.34
2024-03-12T22:15:12.775Z,98659.84
2024-03-12T22:17:43.005Z,98663.13
2024-03-12T22:20:10.730Z,98661.50
2024-03-12T22:22:40.712Z,98655.09
2024-03-12T22:25:10.533Z,98655.09
2024-03-12T22:27:40.121Z,98657.16
2024-03-12T22:30:08.209Z,98661.50
2024-03-12T22:32:35.626Z,98651.19
2024-03-12T22:35:02.840Z,98656.13
2024-03-12T22:37:29.979Z,98649.13
2024-03-12T22:39:58.205Z,98649.38
2024-03-12T22:42:26.763Z,98654.47
2024-03-12T22:44:54.979Z,98645.84
2024-03-12T22:47:22.414Z,98642.13
2024-03-12T22:49:49.690Z,98633.50
2024-03-12T22:52:19.213Z,98638.84
2024-03-12T22:54:46.703Z,98634.56
2024-03-12T22:57:13.872Z,98637.59
2024-03-12T22:59:42.044Z,98629.75
2024-03-12T23:02:10.852Z,98626.28
2024-03-12T23:04:38.128Z,98625.47
2024-03-12T23:07:05.433Z,98628.75
2024-03-12T23:09:33.631Z,98622.78
2024-03-12T23:12:02.169Z,98620.09
2024-03-12T23:14:30.926Z,98624.19
2024-03-12T23:16:59.711Z,98619.03
2024-03-12T23:19:27.397Z,98612.06
2024-03-12T23:21:55.034Z,98619.03
2024-03-12T23:24:21.906Z,98619.88
2024-03-12T23:26:51.220Z,98612.34
2024-03-12T23:29:18.400Z,98609.97
2024-03-12T23:31:46.213Z,98614.66
2024-03-12T23:34:16.321Z,98612.78
2024-03-12T23:36:43.394Z,98610.97
2024-03-12T23:39:16.426Z,98607.22
2024-03-12T23:41:46.176Z,98596.50
2024-03-12T23:44:15.025Z,98597.31
2024-03-12T23:46:43.343Z,98591.94
2024-03-12T23:49:10.380Z,98591.94
2024-03-12T23:51:37.516Z,98583.69
2024-03-12T23:54:04.518Z,98586.59
2024-03-12T23:56:33.521Z,98586.59
2024-03-12T23:59:01.055Z,98569.47
